Weather at J Tower Nishioi Helipad

Public forecast

Using degrees Celsius for public forecast. Weather courtesy of forecast.io.

Closest aviation weather report (METAR) to J Tower Nishioi Helipad

Report is more than 6 hours old.

Closest report is Tokyo Haneda International Airport, 4.1 nm (7.5 km) SE.

2024/06/24 06:30 (retrieved 1 day ago)

RJTT 240630Z 19015KT 9999 FEW030 BKN/// 29/22 Q1001 NOSIG RMK 1CU030 A2958

Closest aviation forecast (TAF) to J Tower Nishioi Helipad

Forecast is more than 12 hours old.

Closest forecast is Tokyo Haneda International Airport, 4.1 nm (7.5 km) SE.

2024/06/24 18:30 (retrieved 15 hours ago)

TAF RJTT 241705Z 2418/2600 03005KT 9999 FEW020 BECMG 2421/2423 18007KT BECMG 2504/2506 20017KT BECMG 2512/2515 21007KT